Time;durP1;ratioP1;P1;durP2;ratioP2;P2;SDS_P1;SDS_P2;PMS_P1;PMS_P2;Temp;Humidity;BMP_temperature;BMP_pressure;BME280_temperature;BME280_humidity;BME280_pressure;Samples;Min_cycle;Max_cycle;Signal;HPM_P1;HPM_P2
2023/04/12 00:00:01;;;;;;;8.20;4.60;;;;;;;;;;5074415;28;20059;-71
2023/04/12 00:02:27;;;;;;;8.70;4.28;;;;;;;;;;5087815;28;20489;-71
2023/04/12 00:04:56;;;;;;;6.97;4.63;;;;;;;;;;5079814;28;20024;-70
2023/04/12 00:07:23;;;;;;;9.82;5.53;;;;;;;;;;5091834;28;20028;-71
2023/04/12 00:09:49;;;;;;;11.07;5.22;;;;;;;;;;5092663;28;20016;-70
2023/04/12 00:12:16;;;;;;;8.10;4.93;;;;;;;;;;5075891;28;20027;-72
2023/04/12 00:14:42;;;;;;;11.00;5.00;;;;;;;;;;5085173;28;20024;-72
2023/04/12 00:17:08;;;;;;;8.40;4.80;;;;;;;;;;5082620;28;20016;-69
2023/04/12 00:19:34;;;;;;;11.38;5.18;;;;;;;;;;5092642;28;20499;-71
2023/04/12 00:22:00;;;;;;;14.32;5.93;;;;;;;;;;5080602;28;20027;-71
2023/04/12 00:24:26;;;;;;;10.35;4.65;;;;;;;;;;5092723;28;20091;-71
2023/04/12 00:26:52;;;;;;;9.75;5.28;;;;;;;;;;5083625;28;20029;-71
2023/04/12 00:29:18;;;;;;;10.10;5.72;;;;;;;;;;5082883;28;20051;-72
2023/04/12 00:31:44;;;;;;;10.05;4.22;;;;;;;;;;5092360;28;20069;-72
2023/04/12 00:34:10;;;;;;;8.32;5.35;;;;;;;;;;5075397;28;20107;-72
2023/04/12 00:36:36;;;;;;;10.43;5.03;;;;;;;;;;5085644;28;20040;-72
2023/04/12 00:39:02;;;;;;;6.75;4.38;;;;;;;;;;5079903;28;20024;-72
2023/04/12 00:41:28;;;;;;;8.30;4.68;;;;;;;;;;5091992;28;20064;-72
2023/04/12 00:43:54;;;;;;;8.88;4.70;;;;;;;;;;5075300;28;20095;-72
2023/04/12 00:46:20;;;;;;;8.45;5.72;;;;;;;;;;5088158;28;20013;-71
2023/04/12 00:48:47;;;;;;;7.10;4.70;;;;;;;;;;5078169;28;20402;-72
2023/04/12 00:51:13;;;;;;;10.18;4.60;;;;;;;;;;5091988;28;20077;-72
2023/04/12 00:53:40;;;;;;;8.48;4.57;;;;;;;;;;5091721;28;20028;-73
2023/04/12 00:56:06;;;;;;;5.85;4.30;;;;;;;;;;5084278;28;20099;-74
2023/04/12 00:58:32;;;;;;;6.07;4.20;;;;;;;;;;5083589;28;20509;-73
2023/04/12 01:00:59;;;;;;;8.68;5.10;;;;;;;;;;5080800;28;20032;-71
2023/04/12 01:03:26;;;;;;;7.88;4.65;;;;;;;;;;5091771;28;20031;-72
2023/04/12 01:05:58;;;;;;;6.97;4.88;;;;;;;;;;5074832;28;20059;-73
2023/04/12 01:08:44;;;;;;;7.82;4.70;;;;;;;;;;5090690;28;20046;-72
2023/04/12 01:11:18;;;;;;;7.40;4.55;;;;;;;;;;5080562;28;20024;-72
2023/04/12 01:13:47;;;;;;;7.40;4.85;;;;;;;;;;5086966;28;20073;-72
2023/04/12 01:16:25;;;;;;;12.25;5.38;;;;;;;;;;5088555;28;20035;-73
2023/04/12 01:18:52;;;;;;;16.23;5.32;;;;;;;;;;5078864;28;20089;-72
2023/04/12 01:21:40;;;;;;;9.15;4.85;;;;;;;;;;5091111;28;20115;-73
2023/04/12 01:24:06;;;;;;;5.90;4.60;;;;;;;;;;5087725;28;20385;-72
2023/04/12 01:26:41;;;;;;;9.93;5.57;;;;;;;;;;5076799;28;20518;-72
2023/04/12 01:29:09;;;;;;;10.02;5.70;;;;;;;;;;5090339;28;20024;-73
2023/04/12 01:31:35;;;;;;;8.60;4.90;;;;;;;;;;5076575;28;20580;-71
2023/04/12 01:34:03;;;;;;;8.70;5.20;;;;;;;;;;5089062;28;20085;-71
2023/04/12 01:36:29;;;;;;;9.30;4.97;;;;;;;;;;5085627;28;20394;-72
2023/04/12 01:38:55;;;;;;;6.68;5.30;;;;;;;;;;5078474;28;20073;-73
2023/04/12 01:41:22;;;;;;;9.85;4.65;;;;;;;;;;5089437;28;20177;-73
2023/04/12 01:43:48;;;;;;;8.05;5.20;;;;;;;;;;5074928;28;20083;-72
2023/04/12 01:46:19;;;;;;;10.23;5.28;;;;;;;;;;5090549;28;20047;-72
2023/04/12 01:48:49;;;;;;;9.48;5.63;;;;;;;;;;5082335;28;20039;-73
2023/04/12 01:51:34;;;;;;;11.23;5.75;;;;;;;;;;5081186;28;20043;-71
2023/04/12 01:54:09;;;;;;;9.02;5.43;;;;;;;;;;5074333;28;20021;-71
2023/04/12 01:56:36;;;;;;;13.15;6.80;;;;;;;;;;5081241;28;20453;-72
2023/04/12 01:59:03;;;;;;;7.50;4.75;;;;;;;;;;5080207;28;20024;-72
2023/04/12 02:01:29;;;;;;;11.30;6.25;;;;;;;;;;5084229;28;20562;-70
2023/04/12 02:03:58;;;;;;;8.63;5.72;;;;;;;;;;5090174;28;20161;-73
2023/04/12 02:06:25;;;;;;;11.10;5.57;;;;;;;;;;5075280;28;20098;-71
2023/04/12 02:08:56;;;;;;;11.15;6.00;;;;;;;;;;5079848;28;20033;-71
2023/04/12 02:11:22;;;;;;;;;;;;;;;;;;5078391;28;20017;-71
2023/04/12 02:13:48;;;;;;;7.55;5.43;;;;;;;;;;5070540;28;19905;-72
2023/04/12 02:16:14;;;;;;;11.27;6.18;;;;;;;;;;5087147;28;20485;-71
2023/04/12 02:18:41;;;;;;;10.50;6.38;;;;;;;;;;5076502;28;20565;-71
2023/04/12 02:21:07;;;;;;;12.65;6.00;;;;;;;;;;5090633;28;20099;-71
2023/04/12 02:23:33;;;;;;;8.40;5.68;;;;;;;;;;5075182;28;20109;-72
2023/04/12 02:25:59;;;;;;;8.93;5.63;;;;;;;;;;5086694;28;20048;-72
2023/04/12 02:28:25;;;;;;;11.65;5.57;;;;;;;;;;5085217;28;20028;-72
2023/04/12 02:30:52;;;;;;;12.63;5.93;;;;;;;;;;5078783;28;20465;-72
2023/04/12 02:33:20;;;;;;;7.88;5.38;;;;;;;;;;5090828;28;20399;-71
2023/04/12 02:35:46;;;;;;;13.38;6.00;;;;;;;;;;5074653;28;20045;-71
2023/04/12 02:38:12;;;;;;;10.18;5.22;;;;;;;;;;5089097;28;20020;-71
2023/04/12 02:40:41;;;;;;;9.35;5.68;;;;;;;;;;5083665;28;20035;-71
2023/04/12 02:43:08;;;;;;;9.65;5.43;;;;;;;;;;5081156;28;20020;-71
2023/04/12 02:45:34;;;;;;;10.27;5.32;;;;;;;;;;5090521;28;20020;-72
2023/04/12 02:48:01;;;;;;;9.13;5.43;;;;;;;;;;5084808;28;20031;-72
2023/04/12 02:50:27;;;;;;;9.40;5.70;;;;;;;;;;5084113;28;20024;-72
2023/04/12 02:52:52;;;;;;;13.27;5.95;;;;;;;;;;5082253;28;20203;-72
2023/04/12 02:55:18;;;;;;;11.60;5.90;;;;;;;;;;5084417;28;20405;-69
2023/04/12 02:57:45;;;;;;;11.93;5.78;;;;;;;;;;5091934;28;20032;-71
2023/04/12 03:00:11;;;;;;;9.70;5.90;;;;;;;;;;5090768;28;20055;-71
2023/04/12 03:02:37;;;;;;;8.55;5.43;;;;;;;;;;5085421;28;20029;-72
2023/04/12 03:05:04;;;;;;;9.15;5.75;;;;;;;;;;5083820;28;20079;-72
2023/04/12 03:07:30;;;;;;;11.50;5.40;;;;;;;;;;5072570;28;20465;-72
2023/04/12 03:09:56;;;;;;;8.98;5.18;;;;;;;;;;5090847;28;20054;-71
2023/04/12 03:12:22;;;;;;;10.52;5.50;;;;;;;;;;5089657;28;20016;-71
2023/04/12 03:14:48;;;;;;;12.48;5.95;;;;;;;;;;5081430;28;20024;-72
2023/04/12 03:17:14;;;;;;;10.90;6.15;;;;;;;;;;5093057;28;20111;-72
2023/04/12 03:19:40;;;;;;;8.00;5.18;;;;;;;;;;5078396;28;20032;-71
2023/04/12 03:22:06;;;;;;;9.52;5.10;;;;;;;;;;5091866;28;20024;-71
2023/04/12 03:24:33;;;;;;;9.85;5.68;;;;;;;;;;5087797;28;20020;-70
2023/04/12 03:27:02;;;;;;;7.63;5.05;;;;;;;;;;5082370;28;20393;-72
2023/04/12 03:29:29;;;;;;;8.63;5.47;;;;;;;;;;5093258;28;20516;-71
2023/04/12 03:31:56;;;;;;;10.23;5.80;;;;;;;;;;5076596;28;20482;-72
2023/04/12 03:34:23;;;;;;;13.13;5.88;;;;;;;;;;5089002;28;20036;-72
2023/04/12 03:36:49;;;;;;;8.75;6.15;;;;;;;;;;5078225;28;20131;-72
2023/04/12 03:39:15;;;;;;;10.45;5.95;;;;;;;;;;5083931;28;20107;-72
2023/04/12 03:41:41;;;;;;;7.93;5.80;;;;;;;;;;5093187;28;20474;-72
2023/04/12 03:44:07;;;;;;;14.40;6.45;;;;;;;;;;5076271;28;20423;-72
2023/04/12 03:46:34;;;;;;;11.45;5.47;;;;;;;;;;5087081;28;20222;-72
2023/04/12 03:49:00;;;;;;;9.82;5.10;;;;;;;;;;5081450;28;20081;-72
2023/04/12 03:51:29;;;;;;;13.98;5.32;;;;;;;;;;5092759;28;20111;-72
2023/04/12 03:53:55;;;;;;;7.03;5.25;;;;;;;;;;5076081;28;20154;-73
2023/04/12 03:56:21;;;;;;;8.60;5.72;;;;;;;;;;5083345;28;20073;-71
2023/04/12 03:58:47;;;;;;;8.63;5.43;;;;;;;;;;5084013;28;20055;-72
2023/04/12 04:01:13;;;;;;;9.00;5.28;;;;;;;;;;5083888;28;20027;-72
2023/04/12 04:03:40;;;;;;;10.27;5.90;;;;;;;;;;5091645;28;20024;-72
2023/04/12 04:06:06;;;;;;;11.25;5.95;;;;;;;;;;5075791;28;20031;-71
2023/04/12 04:08:33;;;;;;;7.63;4.85;;;;;;;;;;5091733;28;20073;-72
2023/04/12 04:10:59;;;;;;;12.52;6.60;;;;;;;;;;5083132;28;20033;-70
2023/04/12 04:13:26;;;;;;;9.95;5.40;;;;;;;;;;5085412;28;20077;-72
2023/04/12 04:15:55;;;;;;;10.73;5.47;;;;;;;;;;5092137;28;20104;-72
2023/04/12 04:18:21;;;;;;;7.72;5.38;;;;;;;;;;5075325;28;20024;-71
2023/04/12 04:20:47;;;;;;;7.57;4.93;;;;;;;;;;5092154;28;20030;-71
2023/04/12 04:23:14;;;;;;;10.82;5.72;;;;;;;;;;5080777;28;20387;-72
2023/04/12 04:25:40;;;;;;;10.07;5.00;;;;;;;;;;5087284;28;20504;-72
2023/04/12 04:28:06;;;;;;;9.95;5.22;;;;;;;;;;5089197;28;20112;-72
2023/04/12 04:30:37;;;;;;;8.65;5.45;;;;;;;;;;5077674;28;20047;-72
2023/04/12 04:33:03;;;;;;;7.90;4.97;;;;;;;;;;5091921;28;20024;-72
2023/04/12 04:35:30;;;;;;;6.40;4.93;;;;;;;;;;5078360;28;20016;-71
2023/04/12 04:37:56;;;;;;;5.55;4.65;;;;;;;;;;5077411;28;20090;-72
2023/04/12 04:40:23;;;;;;;9.10;4.88;;;;;;;;;;5092080;28;20020;-73
2023/04/12 04:42:53;;;;;;;11.07;5.05;;;;;;;;;;5083785;28;20033;-71
2023/04/12 04:45:25;;;;;;;8.80;5.15;;;;;;;;;;5083756;28;20042;-72
2023/04/12 04:47:54;;;;;;;7.88;4.53;;;;;;;;;;5090943;28;20036;-73
2023/04/12 04:50:21;;;;;;;5.53;3.63;;;;;;;;;;5075919;28;20043;-70
2023/04/12 04:52:47;;;;;;;6.10;3.63;;;;;;;;;;5091616;28;20047;-72
2023/04/12 04:55:14;;;;;;;4.13;2.92;;;;;;;;;;5084246;28;20500;-72
2023/04/12 04:57:40;;;;;;;4.70;2.65;;;;;;;;;;5090797;28;20389;-71
2023/04/12 05:00:10;;;;;;;4.28;2.80;;;;;;;;;;5074471;28;20024;-71
2023/04/12 05:02:41;;;;;;;4.22;2.10;;;;;;;;;;5085416;28;20101;-71
2023/04/12 05:05:12;;;;;;;3.55;1.90;;;;;;;;;;5082333;28;20043;-72
2023/04/12 05:07:38;;;;;;;6.25;2.45;;;;;;;;;;5090789;28;20042;-72
2023/04/12 05:10:05;;;;;;;4.75;2.35;;;;;;;;;;5089573;28;20120;-72
2023/04/12 05:12:31;;;;;;;3.53;1.90;;;;;;;;;;5076678;28;20021;-74
2023/04/12 05:14:57;;;;;;;3.20;1.73;;;;;;;;;;5091143;28;20024;-72
2023/04/12 05:17:23;;;;;;;4.20;1.75;;;;;;;;;;5078345;28;20450;-72
2023/04/12 05:19:49;;;;;;;4.78;1.48;;;;;;;;;;5088274;28;20101;-72
2023/04/12 05:22:19;;;;;;;4.22;1.98;;;;;;;;;;5087086;28;20029;-72
2023/04/12 05:24:45;;;;;;;7.07;2.15;;;;;;;;;;5078774;28;20012;-72
2023/04/12 05:27:11;;;;;;;5.45;2.08;;;;;;;;;;5090465;28;20093;-73
2023/04/12 05:29:37;;;;;;;8.45;2.00;;;;;;;;;;5076678;28;20021;-72
2023/04/12 05:32:03;;;;;;;2.88;1.60;;;;;;;;;;5089628;28;20107;-70
2023/04/12 05:34:29;;;;;;;3.03;1.55;;;;;;;;;;5085867;28;20032;-71
2023/04/12 05:36:55;;;;;;;5.80;2.55;;;;;;;;;;5079840;28;20093;-72
2023/04/12 05:39:22;;;;;;;3.83;2.63;;;;;;;;;;5090433;28;20047;-73
2023/04/12 05:41:48;;;;;;;4.63;1.90;;;;;;;;;;5074551;28;20054;-72
2023/04/12 05:44:14;;;;;;;5.47;2.58;;;;;;;;;;5090871;28;20020;-72
2023/04/12 05:46:40;;;;;;;3.85;2.25;;;;;;;;;;5082551;28;20507;-72
2023/04/12 05:49:06;;;;;;;5.75;2.60;;;;;;;;;;5080211;28;20028;-72
2023/04/12 05:51:32;;;;;;;4.07;2.08;;;;;;;;;;5090905;28;20024;-71
2023/04/12 05:53:58;;;;;;;4.20;1.92;;;;;;;;;;5075106;28;20025;-71
2023/04/12 05:56:24;;;;;;;3.47;2.20;;;;;;;;;;5081344;28;20048;-71
2023/04/12 05:58:51;;;;;;;8.27;2.33;;;;;;;;;;5081731;28;20035;-71
2023/04/12 06:01:18;;;;;;;4.95;2.22;;;;;;;;;;5082425;28;20150;-71
2023/04/12 06:03:45;;;;;;;3.40;2.10;;;;;;;;;;5091113;28;20377;-70
2023/04/12 06:06:11;;;;;;;4.93;2.40;;;;;;;;;;5073953;28;20031;-71
2023/04/12 06:08:37;;;;;;;3.38;2.08;;;;;;;;;;5083322;28;20108;-72
2023/04/12 06:11:04;;;;;;;8.02;2.58;;;;;;;;;;5080386;28;20073;-71
2023/04/12 06:13:30;;;;;;;4.72;2.60;;;;;;;;;;5090625;28;20028;-71
2023/04/12 06:15:56;;;;;;;5.47;2.30;;;;;;;;;;5080815;28;20024;-71
2023/04/12 06:18:22;;;;;;;7.70;2.97;;;;;;;;;;5069647;28;20039;-72
2023/04/12 06:20:48;;;;;;;5.15;2.72;;;;;;;;;;5076835;28;20024;-69
2023/04/12 06:23:15;;;;;;;5.07;2.72;;;;;;;;;;5078369;28;20104;-72
2023/04/12 06:25:41;;;;;;;3.70;2.50;;;;;;;;;;5084218;28;20024;-73
2023/04/12 06:28:07;;;;;;;6.07;2.95;;;;;;;;;;5089580;28;20081;-72
2023/04/12 06:30:33;;;;;;;5.53;2.40;;;;;;;;;;5078030;28;20432;-73
2023/04/12 06:32:59;;;;;;;6.85;3.05;;;;;;;;;;5092533;28;20020;-73
2023/04/12 06:35:25;;;;;;;8.02;3.30;;;;;;;;;;5079652;28;20082;-71
2023/04/12 06:37:51;;;;;;;5.40;2.90;;;;;;;;;;5088043;28;20256;-71
2023/04/12 06:40:17;;;;;;;7.45;3.20;;;;;;;;;;5076425;28;20028;-71
2023/04/12 06:42:43;;;;;;;5.20;3.10;;;;;;;;;;5087075;28;20023;-71
2023/04/12 06:45:09;;;;;;;7.65;3.20;;;;;;;;;;5084773;28;20035;-71
2023/04/12 06:47:35;;;;;;;6.20;3.42;;;;;;;;;;5093150;28;20055;-72
2023/04/12 06:50:01;;;;;;;4.63;2.97;;;;;;;;;;5076848;28;20494;-71
2023/04/12 06:52:28;;;;;;;5.53;3.28;;;;;;;;;;5088415;28;20096;-71
2023/04/12 06:54:55;;;;;;;4.88;3.30;;;;;;;;;;5081782;28;20038;-72
2023/04/12 06:57:21;;;;;;;9.20;3.67;;;;;;;;;;5080056;28;20020;-71
2023/04/12 06:59:47;;;;;;;6.28;3.90;;;;;;;;;;5089367;28;20442;-72
2023/04/12 07:02:13;;;;;;;6.55;4.35;;;;;;;;;;5076833;28;20024;-72
2023/04/12 07:04:39;;;;;;;6.00;4.55;;;;;;;;;;5087058;28;20021;-72
2023/04/12 07:07:06;;;;;;;6.53;3.90;;;;;;;;;;5083079;28;20027;-71
2023/04/12 07:09:32;;;;;;;7.03;4.40;;;;;;;;;;5093258;28;20051;-72
2023/04/12 07:11:58;;;;;;;8.65;4.05;;;;;;;;;;5090003;28;20028;-73
2023/04/12 07:14:25;;;;;;;7.93;4.40;;;;;;;;;;5093208;28;20752;-71
2023/04/12 07:16:51;;;;;;;7.07;4.40;;;;;;;;;;5082886;28;20029;-73
2023/04/12 07:19:16;;;;;;;7.90;4.90;;;;;;;;;;5080773;28;20024;-72
2023/04/12 07:21:43;;;;;;;10.38;5.03;;;;;;;;;;5092713;28;20043;-72
2023/04/12 07:24:09;;;;;;;9.77;4.65;;;;;;;;;;5093070;28;20447;-71
2023/04/12 07:26:35;;;;;;;6.72;3.85;;;;;;;;;;5085371;28;20024;-72
2023/04/12 07:29:01;;;;;;;6.03;4.15;;;;;;;;;;5080235;28;20073;-71
2023/04/12 07:31:29;;;;;;;9.70;4.30;;;;;;;;;;5091763;28;20020;-71
2023/04/12 07:33:55;;;;;;;7.97;4.70;;;;;;;;;;5074379;28;20491;-71
2023/04/12 07:36:21;;;;;;;8.98;4.43;;;;;;;;;;5086972;28;20074;-72
2023/04/12 07:38:48;;;;;;;8.32;4.40;;;;;;;;;;5077927;28;20401;-73
2023/04/12 07:41:14;;;;;;;7.93;4.68;;;;;;;;;;5092514;28;20052;-72
2023/04/12 07:43:41;;;;;;;7.85;4.88;;;;;;;;;;5077678;28;20094;-71
2023/04/12 07:46:07;;;;;;;6.55;4.20;;;;;;;;;;5091505;28;20032;-72
2023/04/12 07:48:34;;;;;;;5.50;4.35;;;;;;;;;;5085856;28;20033;-72
2023/04/12 07:51:00;;;;;;;6.05;4.00;;;;;;;;;;5082025;28;20077;-73
2023/04/12 07:53:27;;;;;;;7.82;4.38;;;;;;;;;;5093251;28;20024;-73
2023/04/12 07:55:53;;;;;;;8.07;3.55;;;;;;;;;;5085245;28;20024;-72
2023/04/12 07:58:21;;;;;;;5.82;3.55;;;;;;;;;;5087965;28;20459;-71
2023/04/12 08:00:47;;;;;;;5.50;2.75;;;;;;;;;;5079746;28;20020;-71
2023/04/12 08:03:14;;;;;;;4.70;2.17;;;;;;;;;;5092524;28;20633;-70
2023/04/12 08:05:40;;;;;;;9.23;2.70;;;;;;;;;;5076134;28;20394;-71
2023/04/12 08:08:08;;;;;;;5.63;2.42;;;;;;;;;;5090338;28;20012;-72
2023/04/12 08:10:35;;;;;;;9.85;2.88;;;;;;;;;;5086197;28;20024;-72
2023/04/12 08:13:01;;;;;;;4.80;1.70;;;;;;;;;;5081947;28;20475;-72
2023/04/12 08:15:27;;;;;;;3.75;1.33;;;;;;;;;;5080132;28;20036;-73
2023/04/12 08:17:54;;;;;;;5.15;1.60;;;;;;;;;;5069506;28;20125;-72
2023/04/12 08:20:19;;;;;;;4.80;1.80;;;;;;;;;;5086415;28;20052;-72
2023/04/12 08:22:46;;;;;;;4.25;1.35;;;;;;;;;;5077835;28;20051;-71
2023/04/12 08:25:12;;;;;;;3.63;1.20;;;;;;;;;;5087544;28;20017;-70
2023/04/12 08:27:42;;;;;;;4.43;1.63;;;;;;;;;;5087843;28;20107;-72
2023/04/12 08:30:08;;;;;;;4.70;1.48;;;;;;;;;;5072407;28;20056;-71
2023/04/12 08:32:36;;;;;;;3.15;1.23;;;;;;;;;;5082774;28;20111;-72
2023/04/12 08:35:02;;;;;;;5.35;1.70;;;;;;;;;;5080137;28;20020;-70
2023/04/12 08:37:28;;;;;;;2.90;1.00;;;;;;;;;;5089892;28;20047;-72
2023/04/12 08:39:54;;;;;;;4.72;1.48;;;;;;;;;;5090233;28;20047;-73
2023/04/12 08:42:20;;;;;;;2.72;0.98;;;;;;;;;;5075005;28;20024;-73
2023/04/12 08:44:47;;;;;;;3.60;1.40;;;;;;;;;;5084911;28;20028;-74
2023/04/12 08:47:13;;;;;;;3.40;1.52;;;;;;;;;;5081238;28;20024;-73
2023/04/12 08:49:39;;;;;;;2.92;1.20;;;;;;;;;;5076635;28;20037;-73
2023/04/12 08:52:09;;;;;;;3.55;1.58;;;;;;;;;;5090787;28;20020;-72
2023/04/12 08:54:36;;;;;;;3.33;0.93;;;;;;;;;;5086266;28;20043;-71
2023/04/12 08:57:03;;;;;;;2.55;1.20;;;;;;;;;;5090512;28;20028;-71
2023/04/12 08:59:30;;;;;;;5.53;1.20;;;;;;;;;;5091563;28;20024;-72
2023/04/12 09:01:57;;;;;;;4.97;1.20;;;;;;;;;;5090593;28;20024;-71
2023/04/12 09:04:23;;;;;;;5.78;1.42;;;;;;;;;;5092207;28;20069;-73
2023/04/12 09:06:49;;;;;;;5.28;1.77;;;;;;;;;;5091902;28;20517;-72
2023/04/12 09:09:15;;;;;;;5.13;1.58;;;;;;;;;;5090021;28;20020;-72
2023/04/12 09:11:41;;;;;;;3.95;1.67;;;;;;;;;;5092043;28;20051;-72
2023/04/12 09:14:24;;;;;;;5.28;1.55;;;;;;;;;;5091857;28;20031;-72
2023/04/12 09:16:50;;;;;;;4.03;1.23;;;;;;;;;;5091750;28;20486;-72
2023/04/12 09:19:30;;;;;;;3.50;1.48;;;;;;;;;;5091102;28;20119;-72
2023/04/12 09:21:56;;;;;;;4.20;1.45;;;;;;;;;;5091641;28;20028;-71
2023/04/12 09:24:23;;;;;;;5.32;1.58;;;;;;;;;;5091546;28;20027;-73
2023/04/12 09:27:01;;;;;;;9.32;1.85;;;;;;;;;;5091288;28;20016;-72
2023/04/12 09:29:28;;;;;;;4.38;1.23;;;;;;;;;;5091110;28;20016;-71
2023/04/12 09:32:00;;;;;;;5.80;1.20;;;;;;;;;;5091410;28;20032;-71
2023/04/12 09:34:26;;;;;;;3.17;1.15;;;;;;;;;;5091555;28;20024;-72
2023/04/12 09:36:52;;;;;;;3.15;1.63;;;;;;;;;;5090398;28;20024;-72
2023/04/12 09:39:18;;;;;;;4.25;1.60;;;;;;;;;;5088586;28;20500;-73
2023/04/12 09:41:44;;;;;;;4.10;1.23;;;;;;;;;;5089386;28;20028;-72
2023/04/12 09:44:28;;;;;;;4.88;1.63;;;;;;;;;;5089735;28;20693;-72
2023/04/12 09:46:54;;;;;;;4.75;1.42;;;;;;;;;;5088095;28;20020;-73
2023/04/12 09:49:39;;;;;;;5.43;1.50;;;;;;;;;;5088776;28;20032;-73
2023/04/12 09:52:09;;;;;;;3.15;1.20;;;;;;;;;;5090462;28;20358;-72
2023/04/12 09:54:44;;;;;;;7.70;1.67;;;;;;;;;;5091328;28;20032;-72
2023/04/12 09:57:10;;;;;;;6.22;1.00;;;;;;;;;;5091185;28;20030;-72
2023/04/12 09:59:38;;;;;;;6.13;1.55;;;;;;;;;;5090794;28;20020;-71
2023/04/12 10:02:07;;;;;;;3.63;1.20;;;;;;;;;;5090489;28;20111;-72
2023/04/12 10:04:33;;;;;;;3.88;1.20;;;;;;;;;;5091253;28;20021;-72
2023/04/12 10:07:00;;;;;;;4.30;1.33;;;;;;;;;;5089791;28;20016;-71
2023/04/12 10:09:27;;;;;;;7.80;1.67;;;;;;;;;;5090651;28;20390;-72
2023/04/12 10:11:53;;;;;;;5.32;1.85;;;;;;;;;;5091293;28;20418;-72
2023/04/12 10:14:20;;;;;;;3.78;1.35;;;;;;;;;;5090499;28;20051;-72
2023/04/12 10:16:48;;;;;;;3.92;1.60;;;;;;;;;;5090536;28;20020;-71
2023/04/12 10:19:15;;;;;;;4.18;1.80;;;;;;;;;;5088579;28;20030;-71
2023/04/12 10:21:41;;;;;;;4.03;1.42;;;;;;;;;;5090897;28;20031;-73
2023/04/12 10:24:08;;;;;;;8.98;2.67;;;;;;;;;;5090945;28;20020;-71
2023/04/12 10:26:34;;;;;;;5.45;1.80;;;;;;;;;;5090996;28;20093;-71
2023/04/12 10:29:18;;;;;;;3.92;1.65;;;;;;;;;;5090334;28;20036;-72
2023/04/12 10:31:44;;;;;;;5.07;1.67;;;;;;;;;;5089400;28;20114;-72
2023/04/12 10:34:11;;;;;;;4.50;1.80;;;;;;;;;;5090598;28;20099;-71
2023/04/12 10:36:53;;;;;;;5.28;2.08;;;;;;;;;;5089295;28;20037;-72
2023/04/12 10:39:34;;;;;;;4.95;1.65;;;;;;;;;;5089997;28;20439;-72
2023/04/12 10:42:19;;;;;;;5.03;2.50;;;;;;;;;;5090822;28;20107;-72
2023/04/12 10:44:45;;;;;;;8.07;2.63;;;;;;;;;;5089400;28;20051;-68
2023/04/12 10:47:11;;;;;;;5.65;2.38;;;;;;;;;;5090135;28;20500;-72
2023/04/12 10:49:38;;;;;;;5.32;2.28;;;;;;;;;;5090639;28;20543;-70
2023/04/12 10:52:04;;;;;;;7.93;2.80;;;;;;;;;;5089576;28;20031;-73
2023/04/12 10:54:33;;;;;;;4.35;2.13;;;;;;;;;;5090607;28;20027;-73
2023/04/12 10:57:00;;;;;;;8.48;2.72;;;;;;;;;;5090311;28;20020;-70
2023/04/12 10:59:26;;;;;;;6.45;2.55;;;;;;;;;;5090348;28;20020;-71
2023/04/12 11:02:04;;;;;;;9.23;2.70;;;;;;;;;;5090619;28;20025;-71
2023/04/12 11:04:30;;;;;;;6.00;2.40;;;;;;;;;;5090409;28;20028;-71
2023/04/12 11:06:58;;;;;;;5.85;3.05;;;;;;;;;;5090488;28;20683;-73
2023/04/12 11:09:33;;;;;;;6.85;3.03;;;;;;;;;;5090452;28;20020;-73
2023/04/12 11:12:05;;;;;;;6.45;2.90;;;;;;;;;;5091831;28;20080;-72
2023/04/12 11:14:44;;;;;;;6.85;2.88;;;;;;;;;;5094160;28;20024;-73
2023/04/12 11:17:13;;;;;;;6.32;2.80;;;;;;;;;;5093215;28;20028;-72
2023/04/12 11:19:40;;;;;;;9.77;3.65;;;;;;;;;;5093931;28;20037;-72
2023/04/12 11:22:08;;;;;;;5.32;3.13;;;;;;;;;;5092714;28;20076;-72
2023/04/12 11:24:38;;;;;;;4.65;2.65;;;;;;;;;;5094336;28;20035;-72
2023/04/12 11:27:04;;;;;;;8.43;3.33;;;;;;;;;;5093326;28;20101;-73
2023/04/12 11:29:33;;;;;;;7.75;2.90;;;;;;;;;;5093385;28;20371;-73
2023/04/12 11:32:01;;;;;;;8.93;3.42;;;;;;;;;;5093998;28;20070;-73
2023/04/12 11:34:31;;;;;;;8.07;3.65;;;;;;;;;;5094124;28;20103;-72
2023/04/12 11:36:57;;;;;;;9.30;3.70;;;;;;;;;;5093767;28;20103;-70
2023/04/12 11:39:26;;;;;;;9.80;3.10;;;;;;;;;;5093168;28;20028;-72
2023/04/12 11:41:52;;;;;;;9.50;3.80;;;;;;;;;;5093624;28;20020;-72
2023/04/12 11:44:20;;;;;;;9.65;3.40;;;;;;;;;;5093308;28;20020;-74
2023/04/12 11:46:46;;;;;;;6.85;3.58;;;;;;;;;;5089052;28;20077;-72
2023/04/12 11:49:16;;;;;;;4.78;3.05;;;;;;;;;;5091829;28;20035;-73
2023/04/12 11:51:42;;;;;;;4.35;2.88;;;;;;;;;;5093188;28;20020;-72
2023/04/12 11:54:08;;;;;;;6.95;3.45;;;;;;;;;;5090963;28;20469;-71
2023/04/12 11:56:34;;;;;;;5.75;2.80;;;;;;;;;;5092531;28;20020;-71
2023/04/12 11:59:00;;;;;;;6.38;2.90;;;;;;;;;;5090285;28;20504;-72
2023/04/12 12:01:28;;;;;;;5.57;2.88;;;;;;;;;;5092732;28;20111;-72
2023/04/12 12:03:54;;;;;;;4.90;2.30;;;;;;;;;;5093214;28;20028;-73
2023/04/12 12:06:20;;;;;;;7.63;2.63;;;;;;;;;;5091575;28;20098;-72
2023/04/12 12:08:47;;;;;;;8.43;2.90;;;;;;;;;;5091223;28;20074;-71
2023/04/12 12:11:13;;;;;;;10.93;3.17;;;;;;;;;;5092605;28;20028;-70
2023/04/12 12:13:49;;;;;;;6.32;2.60;;;;;;;;;;5092805;28;20062;-73
2023/04/12 12:16:16;;;;;;;6.28;3.40;;;;;;;;;;5092723;28;20490;-72
2023/04/12 12:18:46;;;;;;;7.50;3.50;;;;;;;;;;5091533;28;20041;-74
2023/04/12 12:21:13;;;;;;;7.97;2.88;;;;;;;;;;5092296;28;20576;-72
2023/04/12 12:23:41;;;;;;;8.40;2.92;;;;;;;;;;5092111;28;20016;-70
2023/04/12 12:26:07;;;;;;;7.70;3.03;;;;;;;;;;5088443;28;20150;-71
2023/04/12 12:28:39;;;;;;;5.13;2.75;;;;;;;;;;5091715;28;20020;-72
2023/04/12 12:31:06;;;;;;;4.43;2.47;;;;;;;;;;5091180;28;20072;-71
2023/04/12 12:33:37;;;;;;;7.45;2.60;;;;;;;;;;5090744;28;20092;-72
2023/04/12 12:36:03;;;;;;;6.90;2.73;;;;;;;;;;5090682;28;20024;-73
2023/04/12 12:38:38;;;;;;;7.22;2.97;;;;;;;;;;5089378;28;20478;-73
2023/04/12 12:41:15;;;;;;;8.20;2.58;;;;;;;;;;5090318;28;20639;-72
2023/04/12 12:43:48;;;;;;;6.32;2.63;;;;;;;;;;5090666;28;20402;-73
2023/04/12 12:46:16;;;;;;;5.65;2.20;;;;;;;;;;5091088;28;20027;-72
2023/04/12 12:48:42;;;;;;;3.47;2.08;;;;;;;;;;5091301;28;20032;-71
2023/04/12 12:51:09;;;;;;;2.70;1.92;;;;;;;;;;5092102;28;20095;-71
2023/04/12 12:53:35;;;;;;;11.13;2.95;;;;;;;;;;5091802;28;20024;-74
2023/04/12 12:56:02;;;;;;;8.38;2.45;;;;;;;;;;5091961;28;20023;-72
2023/04/12 12:58:29;;;;;;;4.22;1.70;;;;;;;;;;5091177;28;20363;-73
2023/04/12 13:00:55;;;;;;;4.28;1.77;;;;;;;;;;5090571;28;20401;-72
2023/04/12 13:03:21;;;;;;;4.38;2.25;;;;;;;;;;5091912;28;20031;-72
2023/04/12 13:05:47;;;;;;;5.70;1.70;;;;;;;;;;5091971;28;20020;-71
2023/04/12 13:08:13;;;;;;;6.43;2.28;;;;;;;;;;5090044;28;20032;-73
2023/04/12 13:10:39;;;;;;;3.47;1.50;;;;;;;;;;5090440;28;20031;-72
2023/04/12 13:13:05;;;;;;;6.88;1.80;;;;;;;;;;5091733;28;20024;-72
2023/04/12 13:15:31;;;;;;;3.25;1.42;;;;;;;;;;5092001;28;20401;-72
2023/04/12 13:17:57;;;;;;;4.00;1.85;;;;;;;;;;5090496;28;20039;-72
2023/04/12 13:20:23;;;;;;;3.90;1.25;;;;;;;;;;5091795;28;20028;-72
2023/04/12 13:22:51;;;;;;;7.80;1.83;;;;;;;;;;5091757;28;20047;-72
2023/04/12 13:25:18;;;;;;;4.55;1.42;;;;;;;;;;5091624;28;20477;-72
2023/04/12 13:27:44;;;;;;;3.22;1.35;;;;;;;;;;5090901;28;20023;-73
2023/04/12 13:30:11;;;;;;;6.25;1.60;;;;;;;;;;5091441;28;20048;-73
2023/04/12 13:32:37;;;;;;;3.40;1.65;;;;;;;;;;5090952;28;20504;-70
2023/04/12 13:35:03;;;;;;;4.93;1.65;;;;;;;;;;5090860;28;20019;-72
2023/04/12 13:37:29;;;;;;;5.15;1.55;;;;;;;;;;5090050;28;20055;-72
2023/04/12 13:39:55;;;;;;;4.50;1.25;;;;;;;;;;5090412;28;20027;-71
2023/04/12 13:42:22;;;;;;;4.30;1.60;;;;;;;;;;5091119;28;20103;-71
2023/04/12 13:44:48;;;;;;;5.10;1.70;;;;;;;;;;5091405;28;20044;-72
2023/04/12 13:47:16;;;;;;;6.72;1.40;;;;;;;;;;5090268;28;20153;-73
2023/04/12 13:49:42;;;;;;;5.20;1.92;;;;;;;;;;5090365;28;20639;-72
2023/04/12 13:52:08;;;;;;;4.35;1.38;;;;;;;;;;5091340;28;20085;-72
2023/04/12 13:54:35;;;;;;;5.88;1.58;;;;;;;;;;5089849;28;20126;-72
2023/04/12 13:57:02;;;;;;;3.10;1.38;;;;;;;;;;5090309;28;20031;-73
2023/04/12 13:59:29;;;;;;;5.78;1.85;;;;;;;;;;5090243;28;20086;-72
2023/04/12 14:01:55;;;;;;;5.22;1.58;;;;;;;;;;5091025;28;20024;-72
2023/04/12 14:04:21;;;;;;;4.30;1.50;;;;;;;;;;5089992;28;20026;-73
2023/04/12 14:06:48;;;;;;;5.32;1.30;;;;;;;;;;5091408;28;20095;-72
2023/04/12 14:09:24;;;;;;;4.82;1.27;;;;;;;;;;5089190;28;20024;-71
2023/04/12 14:11:54;;;;;;;7.10;2.72;;;;;;;;;;5091051;28;20028;-71
2023/04/12 14:14:24;;;;;;;5.67;1.40;;;;;;;;;;5090157;28;20048;-72
2023/04/12 14:16:56;;;;;;;6.70;1.35;;;;;;;;;;5089630;28;20445;-72
2023/04/12 14:19:23;;;;;;;8.43;1.88;;;;;;;;;;5090212;28;20051;-71
2023/04/12 14:21:49;;;;;;;6.53;1.58;;;;;;;;;;5091016;28;20075;-72
2023/04/12 14:24:15;;;;;;;7.53;1.95;;;;;;;;;;5089600;28;20131;-72
2023/04/12 14:26:42;;;;;;;4.63;2.10;;;;;;;;;;5090858;28;20042;-72
2023/04/12 14:29:08;;;;;;;6.18;1.40;;;;;;;;;;5088756;28;20073;-71
2023/04/12 14:31:35;;;;;;;4.60;1.45;;;;;;;;;;5091042;28;20404;-72
2023/04/12 14:34:07;;;;;;;3.20;0.95;;;;;;;;;;5091086;28;20099;-72
2023/04/12 14:36:34;;;;;;;3.22;1.40;;;;;;;;;;5090757;28;20559;-72
2023/04/12 14:39:02;;;;;;;8.13;2.22;;;;;;;;;;5090021;28;20060;-73
2023/04/12 14:41:28;;;;;;;6.97;1.60;;;;;;;;;;5090350;28;20458;-71